Time;durP1;ratioP1;P1;durP2;ratioP2;P2;SDS_P1;SDS_P2;PMS_P1;PMS_P2;Temp;Humidity;BMP_temperature;BMP_pressure;BME280_temperature;BME280_humidity;BME280_pressure;Samples;Min_cycle;Max_cycle;Signal;HPM_P1;HPM_P2
2022/01/23 00:02:28;;;;;;;11.05;7.63;;;;;;;10.46;57.42;102626.22;5081434;28;20414;-89
2022/01/23 00:04:53;;;;;;;7.63;6.28;;;;;;;10.49;57.31;102628.75;5091003;28;20453;-90
2022/01/23 00:07:19;;;;;;;10.35;6.68;;;;;;;10.47;57.27;102617.44;5094541;28;20027;-89
2022/01/23 00:09:45;;;;;;;18.77;8.90;;;;;;;10.45;56.74;102616.63;5075926;28;20441;-90
2022/01/23 00:12:18;;;;;;;16.60;10.00;;;;;;;10.49;57.23;102623.50;5074542;28;20028;-90
2022/01/23 00:17:33;;;;;;;14.10;8.23;;;;;;;10.45;57.01;102629.75;5094969;28;20393;-89
2022/01/23 00:20:01;;;;;;;10.33;7.57;;;;;;;10.44;57.44;102625.41;5093499;28;20028;-90
2022/01/23 00:30:35;;;;;;;9.88;7.43;;;;;;;10.43;57.57;102621.06;5087865;28;20030;-90
2022/01/23 00:33:04;;;;;;;8.98;7.32;;;;;;;10.43;57.76;102613.19;5075371;28;20024;-90
2022/01/23 00:35:31;;;;;;;8.93;6.65;;;;;;;10.44;56.85;102602.63;5094230;28;20028;-89
2022/01/23 00:37:58;;;;;;;11.27;8.52;;;;;;;10.50;56.67;102618.19;5074677;28;20016;-90
2022/01/23 00:40:25;;;;;;;11.23;9.30;;;;;;;10.45;55.85;102621.88;5081295;28;20021;-90
2022/01/23 00:42:53;;;;;;;10.38;9.25;;;;;;;10.49;55.07;102607.75;5078689;28;20028;-90
2022/01/23 00:47:59;;;;;;;11.35;8.77;;;;;;;10.59;56.13;102611.78;5094241;28;20154;-89
2022/01/23 00:50:26;;;;;;;10.23;7.65;;;;;;;10.57;56.69;102600.47;5073848;28;20558;-89
2022/01/23 00:52:52;;;;;;;12.93;9.05;;;;;;;10.57;56.63;102599.63;5073770;28;20063;-89
2022/01/23 00:55:17;;;;;;;8.73;7.72;;;;;;;10.55;56.59;102599.66;5072818;28;20466;-90
2022/01/23 00:57:43;;;;;;;11.02;8.45;;;;;;;10.45;56.63;102572.81;5093357;28;20028;-90
2022/01/23 01:00:11;;;;;;;11.48;7.35;;;;;;;10.51;56.52;102587.53;5092866;28;20371;-89
2022/01/23 01:02:36;;;;;;;10.23;7.95;;;;;;;10.51;56.83;102580.50;5073470;28;20478;-89
2022/01/23 01:05:02;;;;;;;10.35;8.25;;;;;;;10.47;56.88;102576.25;5088760;28;20061;-89
2022/01/23 01:07:28;;;;;;;11.07;8.52;;;;;;;10.50;56.48;102580.53;5093555;28;20114;-90
2022/01/23 01:09:59;;;;;;;10.15;8.55;;;;;;;10.52;56.69;102583.97;5089022;28;20115;-90
2022/01/23 01:12:29;;;;;;;11.95;9.43;;;;;;;10.48;56.88;102582.38;5075533;28;20056;-89
2022/01/23 01:15:12;;;;;;;15.45;9.85;;;;;;;10.48;56.36;102574.50;5086495;28;20031;-90
2022/01/23 01:32:04;;;;;;;10.23;8.10;;;;;;;10.21;57.89;102582.34;5093323;28;20513;-89
2022/01/23 01:34:37;;;;;;;12.32;8.70;;;;;;;10.19;58.19;102586.78;5070646;28;20037;-90
2022/01/23 01:37:03;;;;;;;10.02;7.70;;;;;;;10.23;58.30;102588.38;5073975;28;20502;-90
2022/01/23 01:39:29;;;;;;;10.55;7.63;;;;;;;10.20;58.27;102579.75;5070910;28;20024;-90
2022/01/23 01:41:55;;;;;;;9.10;7.85;;;;;;;10.21;58.26;102578.81;5092495;28;20020;-90
2022/01/23 01:44:22;;;;;;;11.10;9.27;;;;;;;10.15;58.27;102561.53;5072813;28;20505;-90
2022/01/23 01:46:48;;;;;;;9.80;8.52;;;;;;;10.21;58.20;102579.72;5072670;28;20052;-89
2022/01/23 01:49:14;;;;;;;12.10;8.85;;;;;;;10.19;58.56;102565.78;5082730;28;20068;-90
2022/01/23 01:51:40;;;;;;;10.82;9.27;;;;;;;10.19;58.38;102560.53;5072703;28;20019;-89
2022/01/23 01:54:19;;;;;;;11.57;9.32;;;;;;;10.08;58.88;102568.72;5063676;28;20024;-90
2022/01/23 01:56:50;;;;;;;11.80;9.82;;;;;;;10.01;58.78;102563.69;5054617;28;20035;-90
2022/01/23 01:59:34;;;;;;;10.70;8.55;;;;;;;10.11;58.93;102559.88;5090774;28;20388;-89
2022/01/23 02:09:55;;;;;;;10.30;8.65;;;;;;;10.04;58.51;102519.00;5077741;28;20513;-89
2022/01/23 02:23:22;;;;;;;11.45;8.85;;;;;;;10.11;57.92;102544.13;5091432;28;20031;-90
2022/01/23 02:53:33;;;;;;;13.27;9.00;;;;;;;10.07;59.28;102532.91;5074756;28;20031;-90
2022/01/23 02:56:00;;;;;;;10.93;8.40;;;;;;;10.03;58.83;102528.66;5061729;28;20036;-89
2022/01/23 02:58:33;;;;;;;12.23;7.95;;;;;;;9.96;58.77;102510.53;5077589;28;20492;-89
2022/01/23 03:01:09;;;;;;;10.45;7.70;;;;;;;9.98;59.20;102513.94;5061207;28;20126;-90
2022/01/23 03:03:39;;;;;;;9.23;8.20;;;;;;;10.01;58.84;102514.72;5078028;28;20020;-90
2022/01/23 03:12:01;;;;;;;9.98;8.07;;;;;;;10.06;58.80;102511.94;5076367;28;20394;-90
2022/01/23 03:14:36;;;;;;;10.95;8.73;;;;;;;10.07;58.84;102508.38;5089517;28;20132;-89
2022/01/23 03:32:44;;;;;;;11.98;9.57;;;;;;;10.00;59.22;102513.00;5087873;28;20121;-89
2022/01/23 03:35:10;;;;;;;10.13;8.05;;;;;;;10.02;59.14;102510.31;5076611;28;20032;-89
2022/01/23 03:37:35;;;;;;;10.82;8.38;;;;;;;9.88;59.21;102488.00;5072189;28;20036;-90
2022/01/23 03:40:02;;;;;;;12.10;9.60;;;;;;;9.98;58.91;102499.06;5073204;28;20042;-89
2022/01/23 03:42:28;;;;;;;10.48;8.35;;;;;;;9.98;59.01;102503.47;5094050;28;20028;-90
2022/01/23 03:47:39;;;;;;;12.25;8.88;;;;;;;9.95;59.08;102503.53;5077319;28;20181;-90
2022/01/23 03:50:09;;;;;;;10.93;8.65;;;;;;;9.94;59.19;102505.31;5095482;28;20127;-90
2022/01/23 03:52:35;;;;;;;12.55;9.35;;;;;;;9.89;59.70;102513.34;5093954;28;20020;-90
2022/01/23 03:55:03;;;;;;;14.35;8.70;;;;;;;9.84;59.71;102507.38;5095343;28;20020;-90
2022/01/23 03:57:28;;;;;;;12.25;9.45;;;;;;;9.78;59.56;102488.34;5094744;28;20482;-90
2022/01/23 03:59:54;;;;;;;12.20;9.77;;;;;;;9.82;59.65;102511.81;5085056;28;20032;-90
2022/01/23 04:02:20;;;;;;;14.65;9.85;;;;;;;9.75;58.30;102510.25;5095067;28;20099;-90
2022/01/23 04:04:46;;;;;;;15.43;10.65;;;;;;;9.72;58.01;102497.25;5075667;28;20107;-90
2022/01/23 04:07:20;;;;;;;13.15;11.75;;;;;;;9.71;57.81;102500.78;5095071;28;20119;-90
2022/01/23 04:09:47;;;;;;;13.68;11.05;;;;;;;9.79;58.12;102495.28;5076887;28;20066;-89
2022/01/23 04:12:36;;;;;;;14.40;10.68;;;;;;;9.97;56.98;102497.31;5074633;28;20434;-89
2022/01/23 04:33:44;;;;;;;12.02;10.23;;;;;;;10.12;55.14;102502.09;5094493;28;20035;-90
2022/01/23 05:00:47;;;;;;;14.55;11.68;;;;;;;10.16;54.97;102491.50;5092914;28;20081;-90
2022/01/23 05:05:38;;;;;;;13.30;10.93;;;;;;;10.10;55.32;102489.94;5092564;28;20024;-90
2022/01/23 05:08:06;;;;;;;14.90;11.68;;;;;;;10.13;55.94;102488.06;5073684;28;20428;-90
2022/01/23 05:10:33;;;;;;;14.70;10.25;;;;;;;10.13;55.63;102487.22;5073634;28;20394;-89
2022/01/23 05:12:58;;;;;;;12.27;10.20;;;;;;;9.87;56.66;102465.31;5085310;28;20020;-90
2022/01/23 05:15:24;;;;;;;14.70;12.30;;;;;;;10.13;56.29;102476.72;5093697;28;20016;-89
2022/01/23 05:17:49;;;;;;;14.05;11.43;;;;;;;10.24;56.13;102474.56;5074475;28;20027;-90
2022/01/23 05:20:17;;;;;;;13.43;10.15;;;;;;;10.27;56.06;102465.75;5093618;28;20359;-90
2022/01/23 05:22:45;;;;;;;16.27;12.40;;;;;;;10.15;56.20;102480.16;5076451;28;20032;-90
2022/01/23 05:25:18;;;;;;;14.00;10.60;;;;;;;10.03;55.38;102475.28;5092274;28;20024;-89
2022/01/23 05:27:45;;;;;;;16.42;11.70;;;;;;;10.04;55.08;102472.59;5077870;28;20085;-90
2022/01/23 05:30:10;;;;;;;13.05;9.77;;;;;;;9.97;54.78;102459.72;5073651;28;20028;-90
2022/01/23 05:32:40;;;;;;;13.65;10.40;;;;;;;9.95;54.95;102474.66;5087535;28;20024;-90
2022/01/23 05:35:07;;;;;;;12.38;9.13;;;;;;;10.02;54.85;102471.81;5074873;28;20651;-89
2022/01/23 05:37:33;;;;;;;16.58;10.35;;;;;;;9.94;55.18;102463.31;5086502;28;20048;-90
2022/01/23 05:39:59;;;;;;;13.27;10.25;;;;;;;9.95;55.48;102466.78;5075585;28;20040;-90
2022/01/23 05:42:24;;;;;;;14.10;10.65;;;;;;;9.84;54.31;102467.16;5084614;28;20032;-90
2022/01/23 05:44:51;;;;;;;18.25;11.32;;;;;;;9.76;54.78;102467.41;5091198;28;20034;-90
2022/01/23 05:47:16;;;;;;;16.30;10.30;;;;;;;9.82;54.18;102461.94;5092422;28;20031;-90
2022/01/23 05:49:42;;;;;;;10.73;9.27;;;;;;;9.90;54.86;102465.19;5064758;28;20386;-90
2022/01/23 05:52:08;;;;;;;12.60;9.38;;;;;;;9.90;54.53;102459.09;5092946;28;20031;-90
2022/01/23 05:54:34;;;;;;;17.38;10.63;;;;;;;9.89;55.00;102459.97;5089404;28;20513;-90
2022/01/23 05:56:59;;;;;;;11.85;8.50;;;;;;;9.91;55.16;102456.41;5072735;28;20047;-90
2022/01/23 05:59:25;;;;;;;13.95;9.95;;;;;;;9.85;54.48;102461.88;5090923;28;20389;-89
2022/01/23 06:01:52;;;;;;;15.07;10.13;;;;;;;9.89;54.50;102465.22;5092825;28;20105;-89
2022/01/23 06:04:19;;;;;;;13.73;9.95;;;;;;;9.82;54.81;102461.94;5072787;28;20024;-90
2022/01/23 06:06:48;;;;;;;15.63;10.20;;;;;;;9.76;54.54;102456.06;5092338;28;20030;-89
2022/01/23 06:09:13;;;;;;;13.00;10.05;;;;;;;9.89;54.92;102470.47;5092738;28;20028;-89
2022/01/23 06:11:38;;;;;;;9.90;8.35;;;;;;;9.91;54.85;102461.66;5092223;28;20035;-90
2022/01/23 06:14:04;;;;;;;13.70;10.00;;;;;;;9.79;55.11;102456.78;5092306;28;20390;-89
2022/01/23 06:16:30;;;;;;;12.60;9.63;;;;;;;9.81;55.18;102454.13;5083342;28;20249;-90
2022/01/23 06:18:55;;;;;;;11.23;9.77;;;;;;;9.84;54.91;102452.25;5054444;28;20394;-90
2022/01/23 06:21:22;;;;;;;13.10;9.40;;;;;;;9.88;55.00;102453.88;5088014;28;20024;-90
2022/01/23 06:24:00;;;;;;;13.27;9.07;;;;;;;9.95;54.97;102465.03;5074096;28;20093;-90
2022/01/23 06:26:36;;;;;;;13.80;10.63;;;;;;;9.78;54.81;102459.47;5075505;28;20020;-90
2022/01/23 06:29:04;;;;;;;15.68;9.05;;;;;;;9.91;54.99;102453.78;5091617;28;20028;-89
2022/01/23 06:31:29;;;;;;;10.90;8.65;;;;;;;9.87;54.36;102448.69;5080122;28;20028;-90
2022/01/23 06:33:55;;;;;;;12.25;9.15;;;;;;;9.57;55.52;102453.13;5071907;28;20047;-89
2022/01/23 06:36:20;;;;;;;13.35;9.60;;;;;;;9.65;55.31;102453.75;5072000;28;20074;-90
2022/01/23 06:38:46;;;;;;;12.25;9.32;;;;;;;9.81;54.73;102462.84;5071861;28;20078;-90
2022/01/23 06:41:11;;;;;;;17.75;10.35;;;;;;;9.77;54.02;102468.25;5083808;28;20028;-90
2022/01/23 06:43:36;;;;;;;12.45;9.18;;;;;;;9.60;54.46;102463.53;5080124;28;20099;-89
2022/01/23 06:46:02;;;;;;;13.07;9.13;;;;;;;9.31;55.55;102457.41;5091430;28;20417;-89
2022/01/23 06:48:27;;;;;;;13.18;8.75;;;;;;;9.32;55.86;102459.09;5091811;28;20028;-89
2022/01/23 06:50:53;;;;;;;9.63;7.88;;;;;;;9.35;56.90;102461.66;5083304;28;20103;-89
2022/01/23 06:53:18;;;;;;;10.50;8.98;;;;;;;9.40;56.10;102462.38;5071793;28;20425;-89
2022/01/23 06:55:44;;;;;;;13.52;9.80;;;;;;;9.38;55.15;102455.44;5078030;28;20111;-90
2022/01/23 06:58:09;;;;;;;12.27;8.75;;;;;;;9.41;55.66;102458.84;5081212;28;20036;-89
2022/01/23 07:00:35;;;;;;;11.55;9.35;;;;;;;9.63;55.58;102468.69;5075871;28;20120;-89
2022/01/23 07:03:01;;;;;;;13.75;10.52;;;;;;;9.60;55.08;102472.25;5091474;28;20430;-89
2022/01/23 07:05:26;;;;;;;13.75;10.02;;;;;;;9.53;55.18;102470.72;5089015;28;20074;-90
2022/01/23 07:07:52;;;;;;;13.82;9.82;;;;;;;9.52;55.07;102467.25;5075540;28;20024;-90
2022/01/23 07:10:19;;;;;;;13.23;9.48;;;;;;;9.66;54.95;102471.22;5090279;28;20391;-90
2022/01/23 07:12:44;;;;;;;12.90;9.00;;;;;;;9.66;54.88;102471.22;5089260;28;20024;-90
2022/01/23 07:15:09;;;;;;;12.88;9.40;;;;;;;9.51;55.35;102455.03;5091202;28;20016;-90
2022/01/23 07:17:42;;;;;;;12.23;9.57;;;;;;;9.65;54.96;102480.84;5094255;28;20024;-91
2022/01/23 07:20:08;;;;;;;11.63;8.95;;;;;;;9.64;54.93;102475.66;5092900;28;20027;-90
2022/01/23 07:22:34;;;;;;;10.40;8.18;;;;;;;9.62;55.62;102485.34;5094353;28;20024;-90
2022/01/23 07:25:02;;;;;;;13.32;9.50;;;;;;;9.50;55.12;102486.56;5095824;28;20029;-90
2022/01/23 07:27:31;;;;;;;13.07;9.20;;;;;;;9.57;55.67;102493.31;5095753;28;20066;-91
2022/01/23 07:29:56;;;;;;;10.20;8.50;;;;;;;9.55;55.16;102478.56;5095719;28;20024;-89
2022/01/23 07:32:22;;;;;;;13.95;9.18;;;;;;;9.45;55.72;102473.56;5095660;28;20027;-90
2022/01/23 07:34:47;;;;;;;11.82;8.95;;;;;;;9.52;55.44;102490.84;5095656;28;20498;-89
2022/01/23 07:37:14;;;;;;;12.90;8.65;;;;;;;9.57;55.01;102500.34;5095596;28;20027;-90
2022/01/23 07:39:39;;;;;;;10.85;8.55;;;;;;;9.52;55.17;102490.00;5075964;28;20032;-89
2022/01/23 07:42:05;;;;;;;11.55;8.50;;;;;;;9.54;54.82;102493.44;5094546;28;20089;-90
2022/01/23 07:44:31;;;;;;;11.82;8.88;;;;;;;9.60;54.54;102493.25;5095519;28;20055;-89
2022/01/23 07:46:56;;;;;;;11.07;7.93;;;;;;;9.65;54.94;102490.47;5095388;28;20107;-92
2022/01/23 07:49:22;;;;;;;10.13;8.57;;;;;;;9.61;54.90;102494.09;5077285;28;20466;-91
2022/01/23 07:51:47;;;;;;;11.95;8.93;;;;;;;9.61;54.44;102488.84;5094820;28;20020;-92
2022/01/23 07:54:13;;;;;;;13.30;9.32;;;;;;;9.57;55.07;102493.31;5071397;28;20495;-91
2022/01/23 07:56:42;;;;;;;11.60;8.88;;;;;;;9.59;55.25;102495.91;5078385;28;20031;-92
2022/01/23 07:59:08;;;;;;;14.23;8.57;;;;;;;9.59;55.33;102495.91;5082898;28;20028;-92
2022/01/23 08:01:33;;;;;;;9.40;7.95;;;;;;;9.66;55.29;102502.69;5056793;28;20418;-92
2022/01/23 08:03:58;;;;;;;15.93;9.75;;;;;;;9.61;55.35;102489.69;5074629;28;20063;-91
2022/01/23 08:06:28;;;;;;;13.18;9.40;;;;;;;9.61;55.30;102499.34;5092504;28;20024;-90
2022/01/23 08:08:57;;;;;;;12.10;9.52;;;;;;;9.41;54.75;102498.19;5094640;28;20077;-90
2022/01/23 08:11:22;;;;;;;13.77;9.98;;;;;;;9.36;55.00;102500.09;5094768;28;20032;-91
2022/01/23 08:13:48;;;;;;;11.65;9.35;;;;;;;9.41;55.08;102494.69;5095316;28;20028;-90
2022/01/23 08:16:13;;;;;;;12.80;9.20;;;;;;;9.52;54.95;102500.50;5094045;28;20028;-90
2022/01/23 08:18:39;;;;;;;12.40;10.50;;;;;;;9.56;55.08;102509.97;5094508;28;20024;-90
2022/01/23 08:21:04;;;;;;;14.15;11.65;;;;;;;9.46;54.71;102505.91;5096145;28;20442;-91
2022/01/23 08:23:30;;;;;;;11.85;8.90;;;;;;;9.53;55.09;102503.03;5110909;28;20030;-91
2022/01/23 08:25:55;;;;;;;13.90;10.43;;;;;;;9.34;55.75;102501.91;5114411;28;20032;-91
2022/01/23 08:28:21;;;;;;;11.50;9.05;;;;;;;9.41;55.98;102499.94;5113638;28;20028;-91
2022/01/23 08:30:46;;;;;;;11.38;9.85;;;;;;;9.41;54.81;102492.94;5113369;28;20042;-90
2022/01/23 08:33:12;;;;;;;13.32;10.68;;;;;;;9.22;54.88;102500.50;5113004;28;20016;-90
2022/01/23 08:35:37;;;;;;;12.90;10.60;;;;;;;9.22;55.13;102499.59;5113327;28;20515;-90
2022/01/23 08:38:03;;;;;;;12.35;9.70;;;;;;;9.31;54.98;102512.47;5113043;28;20369;-90
2022/01/23 08:40:47;;;;;;;14.18;10.50;;;;;;;9.03;55.44;102515.88;5111581;28;20450;-90
2022/01/23 08:43:15;;;;;;;14.52;9.73;;;;;;;9.16;55.14;102498.03;5094605;28;20435;-90
2022/01/23 08:45:41;;;;;;;11.10;9.80;;;;;;;9.10;55.23;102501.69;5112985;28;20020;-91
2022/01/23 08:48:07;;;;;;;13.35;9.48;;;;;;;9.19;54.59;102504.97;5112679;28;20537;-91
2022/01/23 08:50:33;;;;;;;12.65;10.02;;;;;;;9.28;54.73;102505.56;5112847;28;20529;-90
2022/01/23 08:52:58;;;;;;;12.50;9.15;;;;;;;9.32;54.81;102503.69;5112967;28;20032;-91
2022/01/23 08:55:24;;;;;;;11.18;9.02;;;;;;;9.39;54.78;102507.84;5093404;28;20019;-89
2022/01/23 08:57:49;;;;;;;13.68;10.63;;;;;;;9.30;54.98;102500.25;5117614;28;20099;-90
2022/01/23 09:00:17;;;;;;;12.85;9.95;;;;;;;9.35;54.38;102502.75;5113802;28;20031;-90
2022/01/23 09:02:42;;;;;;;11.52;9.85;;;;;;;9.41;54.50;102503.41;5116669;27;20106;-90
2022/01/23 09:05:08;;;;;;;10.90;9.60;;;;;;;9.40;54.90;102509.59;5119088;27;20111;-91
2022/01/23 09:07:33;;;;;;;14.07;9.32;;;;;;;9.42;55.21;102509.50;5115626;27;20024;-90
2022/01/23 09:10:02;;;;;;;11.80;9.93;;;;;;;9.43;55.00;102512.09;5119293;27;20469;-90
2022/01/23 09:12:57;;;;;;;13.93;10.73;;;;;;;9.37;55.05;102512.28;5114335;27;20123;-91
2022/01/23 09:15:22;;;;;;;16.08;10.15;;;;;;;9.27;54.85;102495.97;5097746;28;20033;-90
2022/01/23 09:17:48;;;;;;;14.73;11.00;;;;;;;9.36;55.27;102515.81;5110208;27;20035;-91
2022/01/23 09:20:15;;;;;;;16.42;11.23;;;;;;;9.41;55.20;102516.53;5113949;28;20118;-90
2022/01/23 09:22:40;;;;;;;15.30;10.93;;;;;;;9.26;54.83;102503.84;5095918;28;20091;-90
2022/01/23 09:25:05;;;;;;;12.27;9.70;;;;;;;9.29;54.99;102516.88;5112894;28;20024;-90
2022/01/23 09:27:31;;;;;;;20.83;10.80;;;;;;;9.46;54.36;102512.03;5114117;28;20036;-90
2022/01/23 09:30:05;;;;;;;13.55;11.32;;;;;;;9.27;55.29;102519.56;5115969;27;20026;-90
2022/01/23 09:32:31;;;;;;;12.57;10.10;;;;;;;9.28;55.08;102508.19;5118181;27;20032;-90
2022/01/23 09:34:57;;;;;;;13.57;10.45;;;;;;;9.11;56.17;102516.50;5101425;27;20499;-91
2022/01/23 09:37:22;;;;;;;15.43;9.65;;;;;;;9.26;55.50;102506.47;5114837;27;20034;-89
2022/01/23 09:39:52;;;;;;;11.00;9.13;;;;;;;9.24;55.44;102517.03;5111429;27;20039;-90
2022/01/23 09:42:27;;;;;;;11.45;8.65;;;;;;;9.43;54.73;102522.59;5104429;27;20309;-90
2022/01/23 09:44:57;;;;;;;13.63;8.90;;;;;;;9.27;54.81;102518.69;5116842;27;20114;-89
2022/01/23 09:47:23;;;;;;;12.63;9.32;;;;;;;9.34;55.17;102520.25;5095796;28;20028;-90
2022/01/23 09:49:50;;;;;;;12.05;8.75;;;;;;;9.24;55.43;102506.53;5115850;27;20054;-91
2022/01/23 09:52:17;;;;;;;10.15;8.57;;;;;;;8.97;55.96;102517.81;5112945;27;20035;-91
2022/01/23 09:54:52;;;;;;;11.20;8.63;;;;;;;9.13;55.86;102514.69;5115749;27;20033;-91
2022/01/23 09:57:19;;;;;;;11.98;8.27;;;;;;;9.36;55.75;102515.81;5110674;28;20081;-90
2022/01/23 09:59:45;;;;;;;14.02;8.68;;;;;;;9.36;55.54;102515.81;5095690;28;20020;-91
2022/01/23 10:02:10;;;;;;;11.80;8.10;;;;;;;9.12;55.99;102510.38;5112260;27;20036;-91
2022/01/23 10:04:35;;;;;;;11.30;8.15;;;;;;;9.04;56.02;102508.84;5104055;28;20484;-91
2022/01/23 10:07:05;;;;;;;17.65;7.95;;;;;;;8.95;55.48;102517.84;5111593;28;20139;-90
2022/01/23 10:09:31;;;;;;;14.93;8.02;;;;;;;9.17;55.76;102496.28;5114525;27;20020;-91
2022/01/23 10:11:58;;;;;;;12.52;8.52;;;;;;;9.37;54.89;102507.03;5112494;28;20023;-90
2022/01/23 10:14:23;;;;;;;10.18;7.82;;;;;;;9.30;54.96;102510.72;5112377;28;20542;-91
2022/01/23 10:16:48;;;;;;;9.75;7.57;;;;;;;9.35;55.09;102503.59;5111587;27;20023;-91
2022/01/23 10:19:17;;;;;;;12.82;7.72;;;;;;;8.93;55.50;102509.16;5109226;27;20100;-91
2022/01/23 10:21:44;;;;;;;8.48;6.97;;;;;;;8.87;56.40;102512.81;5112392;27;20016;-91
2022/01/23 10:24:11;;;;;;;13.90;7.43;;;;;;;8.91;55.93;102509.19;5112238;28;20305;-90
2022/01/23 10:26:44;;;;;;;12.23;7.55;;;;;;;8.99;55.68;102511.63;5106509;28;20031;-90
2022/01/23 10:29:22;;;;;;;16.65;8.55;;;;;;;9.07;55.52;102508.78;5111976;28;20032;-91
2022/01/23 10:32:03;;;;;;;12.40;8.43;;;;;;;8.82;55.67;102503.34;5111433;28;20027;-90
2022/01/23 10:34:58;;;;;;;12.30;7.95;;;;;;;8.93;55.57;102517.88;5109941;28;20024;-90
2022/01/23 10:37:37;;;;;;;10.82;7.65;;;;;;;8.88;55.61;102500.56;5112121;28;20039;-91
2022/01/23 10:40:12;;;;;;;15.57;9.45;;;;;;;9.20;54.85;102502.31;5107240;28;21577;-89
2022/01/23 10:48:12;;;;;;;14.13;9.95;;;;;;;9.17;55.28;102501.53;5104698;28;20042;-90
2022/01/23 10:50:38;;;;;;;23.77;11.15;;;;;;;9.27;54.85;102501.19;5114687;27;20036;-90
2022/01/23 10:53:03;;;;;;;12.63;10.23;;;;;;;9.17;55.01;102494.50;5113637;27;20086;-90
2022/01/23 10:55:32;;;;;;;16.58;10.73;;;;;;;9.23;55.35;102493.47;5099508;28;20027;-90
2022/01/23 10:58:01;;;;;;;17.30;11.27;;;;;;;9.08;55.03;102508.75;5117101;27;20102;-90
2022/01/23 11:00:35;;;;;;;15.18;10.57;;;;;;;9.13;55.04;102488.50;5124496;27;20051;-89
2022/01/23 11:03:17;;;;;;;17.60;12.85;;;;;;;9.11;55.33;102495.53;5114008;28;20103;-89
2022/01/23 11:05:44;;;;;;;19.48;12.70;;;;;;;9.04;55.28;102483.50;5111363;28;20031;-90
2022/01/23 11:08:25;;;;;;;15.10;11.77;;;;;;;8.93;55.10;102482.97;5111442;28;20028;-89
2022/01/23 11:11:06;;;;;;;19.25;13.02;;;;;;;9.14;55.11;102484.09;5084847;28;20072;-89
2022/01/23 11:19:21;;;;;;;23.25;15.57;;;;;;;9.22;55.23;102476.91;5123496;28;20537;-91
2022/01/23 11:21:47;;;;;;;17.75;12.35;;;;;;;9.39;54.27;102473.75;5105498;28;20057;-93
2022/01/23 11:24:14;;;;;;;22.25;14.07;;;;;;;9.30;54.76;102477.53;5113608;28;20511;-91
2022/01/23 11:26:40;;;;;;;16.95;13.40;;;;;;;9.27;54.26;102467.13;5108417;28;20164;-91
2022/01/23 11:29:12;;;;;;;16.70;12.90;;;;;;;9.40;54.93;102464.13;5097689;28;20052;-89
2022/01/23 11:31:39;;;;;;;18.08;13.98;;;;;;;9.25;55.02;102465.47;5111092;28;20389;-89
2022/01/23 11:34:06;;;;;;;17.50;13.80;;;;;;;8.98;55.97;102475.81;5111679;28;20032;-90
2022/01/23 11:36:32;;;;;;;22.17;15.48;;;;;;;9.18;55.16;102469.16;5111623;28;20522;-88
2022/01/23 11:39:07;;;;;;;19.15;14.18;;;;;;;9.36;54.92;102473.88;5111681;28;20224;-88
2022/01/23 11:55:35;;;;;;;20.52;15.55;;;;;;;9.35;54.72;102453.78;5111367;28;20023;-89
2022/01/23 11:58:03;;;;;;;24.30;17.50;;;;;;;9.31;54.58;102455.63;5111709;28;20477;-89
2022/01/23 12:00:30;;;;;;;24.98;18.70;;;;;;;9.35;54.54;102459.03;5110991;28;20047;-88
2022/01/23 12:03:05;;;;;;;27.33;18.25;;;;;;;9.20;55.31;102452.50;5112910;28;20090;-89
2022/01/23 12:05:31;;;;;;;19.13;14.93;;;;;;;9.22;55.84;102449.81;5097302;28;20030;-90
2022/01/23 12:08:20;;;;;;;25.83;17.65;;;;;;;9.49;55.52;102454.22;5115400;28;20028;-89
2022/01/23 12:18:51;;;;;;;24.02;18.73;;;;;;;9.43;54.58;102428.19;5114924;28;20050;-89
2022/01/23 12:21:34;;;;;;;20.17;17.23;;;;;;;9.47;54.49;102435.06;5115964;27;20085;-89
2022/01/23 12:24:02;;;;;;;21.17;17.58;;;;;;;9.33;55.57;102437.25;5111153;28;20051;-89
2022/01/23 12:26:28;;;;;;;21.00;17.23;;;;;;;9.33;54.74;102434.63;5114796;28;20128;-90
2022/01/23 12:28:54;;;;;;;19.73;16.23;;;;;;;9.30;55.33;102432.97;5096583;28;20476;-89
2022/01/23 12:31:23;;;;;;;22.48;18.55;;;;;;;9.36;55.27;102434.53;5114233;28;20055;-90
2022/01/23 12:33:53;;;;;;;22.58;17.77;;;;;;;9.55;54.68;102423.47;5113936;28;20073;-88
2022/01/23 12:36:34;;;;;;;19.92;16.98;;;;;;;9.27;54.16;102426.94;5111331;28;20046;-90
2022/01/23 12:39:08;;;;;;;19.67;17.25;;;;;;;9.59;54.33;102411.97;5112899;28;20030;-89
2022/01/23 12:41:51;;;;;;;20.98;17.45;;;;;;;9.75;53.86;102414.97;5095766;28;20031;-92
2022/01/23 12:44:22;;;;;;;22.50;17.50;;;;;;;9.65;54.47;102401.28;5113335;28;20027;-90
2022/01/23 12:46:51;;;;;;;22.52;17.63;;;;;;;9.77;54.28;102400.88;5114401;28;20390;-90
2022/01/23 12:49:24;;;;;;;23.23;19.08;;;;;;;9.46;54.33;102404.50;5114581;28;20032;-91
2022/01/23 12:52:10;;;;;;;27.23;19.90;;;;;;;9.52;54.41;102399.06;5113102;28;20469;-91
2022/01/23 12:54:48;;;;;;;22.13;16.75;;;;;;;9.75;54.33;102386.97;5112515;28;20027;-90
2022/01/23 12:57:19;;;;;;;23.05;18.52;;;;;;;9.81;53.93;102388.53;5106626;28;20020;-90
2022/01/23 12:59:58;;;;;;;25.35;19.05;;;;;;;9.85;53.87;102377.91;5110046;28;20523;-91
2022/01/23 13:02:30;;;;;;;22.90;17.23;;;;;;;9.57;54.38;102372.69;5096363;28;20504;-91
2022/01/23 13:04:56;;;;;;;21.15;17.75;;;;;;;9.67;54.15;102376.72;5112655;27;20024;-92
2022/01/23 13:07:38;;;;;;;22.88;18.02;;;;;;;9.83;54.09;102382.31;5114023;28;20042;-91
2022/01/23 13:12:52;;;;;;;23.63;18.67;;;;;;;9.75;53.89;102373.84;5112669;28;20038;-90
2022/01/23 13:15:57;;;;;;;22.50;18.33;;;;;;;9.78;53.53;102367.66;5111121;28;20024;-90
2022/01/23 13:18:18;;;;;;;25.00;18.83;;;;;;;9.80;53.57;102363.22;5112687;27;20473;-90
2022/01/23 13:31:49;;;;;;;30.05;21.73;;;;;;;9.64;54.58;102352.38;5113205;27;20068;-92
2022/01/23 13:34:34;;;;;;;28.38;21.98;;;;;;;9.76;54.44;102349.34;5112160;28;20549;-94
2022/01/23 13:37:04;;;;;;;26.20;19.90;;;;;;;9.73;53.98;102336.31;5111165;27;20031;-93
2022/01/23 13:39:45;;;;;;;21.75;18.38;;;;;;;9.91;54.14;102340.97;5112363;28;20038;-92
2022/01/23 13:42:50;;;;;;;28.45;24.65;;;;;;;9.49;54.52;102338.00;5097392;28;20472;-92
2022/01/23 13:48:18;;;;;;;26.48;20.05;;;;;;;9.90;53.30;102327.88;5104957;28;20123;-89
2022/01/23 13:59:15;;;;;;;26.48;20.15;;;;;;;9.63;54.37;102314.78;5112719;27;20077;-91
2022/01/23 14:01:52;;;;;;;30.75;23.98;;;;;;;9.77;53.65;102311.69;5105165;27;20049;-91
2022/01/23 14:04:19;;;;;;;27.42;22.00;;;;;;;9.65;54.48;102309.50;5093957;28;20023;-91
2022/01/23 14:06:46;;;;;;;26.58;20.77;;;;;;;9.60;54.22;102304.41;5107931;27;20131;-91
2022/01/23 14:09:13;;;;;;;28.40;22.33;;;;;;;9.56;53.97;102312.41;5123050;27;20465;-92
2022/01/23 14:11:40;;;;;;;26.83;21.25;;;;;;;9.45;54.59;102308.38;5117158;27;20031;-91
2022/01/23 14:14:15;;;;;;;23.85;20.02;;;;;;;9.48;54.71;102304.81;5112817;28;20028;-92
2022/01/23 14:16:42;;;;;;;25.90;21.85;;;;;;;9.62;54.43;102288.63;5121635;27;20045;-92
2022/01/23 14:19:13;;;;;;;26.55;21.48;;;;;;;9.70;54.20;102297.09;5113245;28;20023;-91
2022/01/23 14:21:41;;;;;;;29.05;20.48;;;;;;;9.79;54.27;102299.38;5113043;28;20053;-91
2022/01/23 14:24:06;;;;;;;28.35;23.95;;;;;;;9.83;53.90;102298.34;5112365;28;20107;-91
2022/01/23 14:26:32;;;;;;;28.50;22.30;;;;;;;9.75;54.24;102286.44;5095041;28;20485;-92
2022/01/23 14:29:04;;;;;;;25.50;20.90;;;;;;;9.85;54.33;102293.94;5109697;28;20545;-91
2022/01/23 14:31:37;;;;;;;28.30;23.30;;;;;;;9.83;54.16;102295.75;5110119;28;20048;-89
2022/01/23 14:34:05;;;;;;;28.95;22.30;;;;;;;9.85;54.17;102282.56;5110523;28;20024;-91
2022/01/23 14:36:35;;;;;;;27.40;22.42;;;;;;;9.53;54.52;102288.00;5113398;27;20020;-91
2022/01/23 14:39:06;;;;;;;29.73;21.17;;;;;;;9.57;54.63;102283.53;5121750;27;20027;-91
2022/01/23 14:41:35;;;;;;;24.27;20.15;;;;;;;9.50;55.06;102282.88;5123314;27;20024;-90
2022/01/23 14:44:13;;;;;;;27.33;21.85;;;;;;;9.30;55.14;102290.53;5112040;28;20035;-91
2022/01/23 14:46:38;;;;;;;32.10;23.45;;;;;;;9.45;55.40;102276.91;5111936;28;20023;-91
2022/01/23 14:49:10;;;;;;;27.73;22.45;;;;;;;9.42;55.07;102266.56;5111990;28;20164;-90
2022/01/23 14:51:37;;;;;;;;;;;;;;;9.16;56.13;102282.25;5111813;28;20107;-91
2022/01/23 14:54:03;;;;;;;29.75;22.30;;;;;;;9.36;55.66;102284.22;5111737;28;20014;-90